Time;durP1;ratioP1;P1;durP2;ratioP2;P2;SDS_P1;SDS_P2;PMS_P1;PMS_P2;Temp;Humidity;BMP_temperature;BMP_pressure;BME280_temperature;BME280_humidity;BME280_pressure;Samples;Min_cycle;Max_cycle;Signal;HPM_P1;HPM_P2
2023/01/19 00:01:00;;;;;;;8.73;3.28;;;;;;;3.46;83.62;99069.50;4908484;29;20063;-70
2023/01/19 00:03:26;;;;;;;9.48;4.68;;;;;;;3.32;84.03;99068.41;4913056;29;20027;-69
2023/01/19 00:05:51;;;;;;;6.70;2.97;;;;;;;3.28;82.75;99064.88;4899055;29;20417;-69
2023/01/19 00:08:17;;;;;;;6.30;3.30;;;;;;;3.46;83.01;99076.72;4947110;29;20027;-69
2023/01/19 00:10:49;;;;;;;4.80;3.13;;;;;;;3.67;82.43;99079.84;4947184;28;20039;-69
2023/01/19 00:13:15;;;;;;;4.10;2.70;;;;;;;3.69;82.34;99080.25;4945095;28;20460;-69
2023/01/19 00:15:41;;;;;;;6.35;3.17;;;;;;;3.48;82.53;99077.88;4961391;28;20935;-69
2023/01/19 00:18:07;;;;;;;8.73;3.58;;;;;;;3.65;82.36;99079.41;4935881;28;20031;-69
2023/01/19 00:20:34;;;;;;;6.45;2.53;;;;;;;3.42;83.04;99081.97;4948393;28;20043;-69
2023/01/19 00:23:00;;;;;;;10.13;3.33;;;;;;;3.43;83.77;99074.72;4933917;28;20044;-69
2023/01/19 00:25:25;;;;;;;4.75;2.95;;;;;;;3.58;83.47;99084.59;4950009;28;20532;-69
2023/01/19 00:27:51;;;;;;;3.40;2.67;;;;;;;3.51;83.44;99079.09;4935588;28;20134;-69
2023/01/19 00:30:17;;;;;;;8.43;3.58;;;;;;;3.63;83.02;99076.31;4940423;29;20015;-68
2023/01/19 00:32:42;;;;;;;3.90;2.85;;;;;;;3.55;83.03;99074.63;4948097;28;20091;-68
2023/01/19 00:35:08;;;;;;;9.10;3.78;;;;;;;3.47;83.53;99079.03;4935476;29;20040;-69
2023/01/19 00:37:33;;;;;;;11.70;3.78;;;;;;;3.72;82.56;99071.56;4941027;28;20502;-69
2023/01/19 00:39:59;;;;;;;8.13;4.32;;;;;;;3.77;82.41;99076.63;4950404;28;20079;-69
2023/01/19 00:42:39;;;;;;;5.53;2.88;;;;;;;3.82;82.39;99076.34;4931402;28;20520;-69
2023/01/19 00:45:09;;;;;;;11.73;3.60;;;;;;;3.98;81.29;99077.09;4949117;29;20035;-68
2023/01/19 00:47:38;;;;;;;6.05;2.75;;;;;;;3.87;81.37;99076.06;4937617;29;20278;-69
2023/01/19 00:50:05;;;;;;;5.95;2.92;;;;;;;3.79;81.74;99068.31;4943952;28;20519;-69
2023/01/19 00:52:30;;;;;;;7.82;3.90;;;;;;;3.76;82.54;99074.31;4938741;28;20135;-69
2023/01/19 00:54:56;;;;;;;14.65;4.70;;;;;;;3.78;82.52;99066.75;4932480;29;20118;-69
2023/01/19 00:57:22;;;;;;;5.55;3.28;;;;;;;3.74;82.99;99064.00;4947365;28;20484;-69
2023/01/19 00:59:47;;;;;;;9.35;3.65;;;;;;;3.59;83.71;99064.84;4959536;28;20420;-69
2023/01/19 01:02:13;;;;;;;8.40;4.50;;;;;;;3.83;82.76;99064.59;4936780;28;20032;-69
2023/01/19 01:04:38;;;;;;;9.02;3.50;;;;;;;3.72;82.91;99066.25;4955570;28;20072;-69
2023/01/19 01:07:04;;;;;;;5.43;2.67;;;;;;;3.63;83.88;99055.81;4932743;29;20496;-69
2023/01/19 01:09:30;;;;;;;5.55;2.67;;;;;;;3.75;83.10;99070.13;4950194;28;20042;-68
2023/01/19 01:11:55;;;;;;;5.53;3.95;;;;;;;3.65;82.69;99074.88;4966771;28;20046;-68
2023/01/19 01:14:22;;;;;;;14.45;4.38;;;;;;;3.66;83.40;99070.31;4948561;28;20031;-69
2023/01/19 01:16:48;;;;;;;9.38;4.78;;;;;;;3.91;83.24;99070.84;4948686;28;20039;-68
2023/01/19 01:19:14;;;;;;;5.82;3.50;;;;;;;3.98;82.50;99081.63;4938494;28;20473;-68
2023/01/19 01:21:39;;;;;;;6.53;3.72;;;;;;;3.92;82.95;99081.13;4962943;28;20037;-69
2023/01/19 01:24:05;;;;;;;9.45;3.30;;;;;;;3.66;83.59;99079.06;4965223;28;20122;-68
2023/01/19 01:26:31;;;;;;;6.78;3.60;;;;;;;3.76;83.62;99067.09;4951291;28;20050;-69
2023/01/19 01:28:56;;;;;;;7.20;3.92;;;;;;;3.91;83.37;99078.84;4951659;28;20027;-68
2023/01/19 01:31:22;;;;;;;9.15;4.85;;;;;;;3.87;82.90;99083.31;4939329;28;20405;-69
2023/01/19 01:33:47;;;;;;;6.03;3.38;;;;;;;3.83;83.69;99087.78;4950088;28;20392;-69
2023/01/19 01:36:13;;;;;;;5.40;3.30;;;;;;;3.83;83.48;99090.44;4942465;28;20043;-69
2023/01/19 01:38:39;;;;;;;9.20;3.95;;;;;;;3.88;84.10;99090.16;4936029;28;20048;-68
2023/01/19 01:41:05;;;;;;;7.18;4.15;;;;;;;4.19;82.82;99076.72;4945900;28;20035;-69
2023/01/19 01:43:44;;;;;;;8.32;4.43;;;;;;;4.20;81.93;99076.38;4971311;28;20117;-68
2023/01/19 01:46:09;;;;;;;4.93;2.13;;;;;;;3.97;82.77;99085.41;4970504;28;20702;-69
2023/01/19 01:48:36;;;;;;;6.50;2.53;;;;;;;3.92;83.51;99080.34;4954245;28;20031;-69
2023/01/19 01:51:23;;;;;;;8.77;3.80;;;;;;;4.06;83.34;99086.75;4976429;28;20049;-69
2023/01/19 01:54:11;;;;;;;9.10;4.13;;;;;;;4.03;83.40;99082.13;4953530;28;20507;-69
2023/01/19 01:56:43;;;;;;;7.32;2.88;;;;;;;4.03;82.82;99076.78;4940288;28;20113;-68
2023/01/19 01:59:16;;;;;;;7.40;3.88;;;;;;;4.05;83.34;99077.22;4950037;28;20046;-68
2023/01/19 02:04:28;;;;;;;5.43;2.45;;;;;;;3.82;83.39;99070.25;4942391;29;20085;-68
2023/01/19 02:15:14;;;;;;;6.85;2.95;;;;;;;4.00;84.12;99058.88;4951731;28;20449;-68
2023/01/19 02:17:41;;;;;;;5.03;3.35;;;;;;;4.13;83.81;99054.94;4937013;28;20044;-71
2023/01/19 02:20:09;;;;;;;5.32;3.33;;;;;;;4.25;83.16;99054.78;4934935;28;20050;-69
2023/01/19 02:22:44;;;;;;;8.57;3.03;;;;;;;3.99;83.79;99049.31;4950165;28;20039;-69
2023/01/19 02:25:09;;;;;;;8.88;4.35;;;;;;;4.14;84.10;99053.78;4935638;28;20436;-68
2023/01/19 02:27:36;;;;;;;12.55;4.22;;;;;;;4.14;83.40;99056.47;4971014;28;20039;-69
2023/01/19 02:30:03;;;;;;;11.07;2.83;;;;;;;4.29;83.03;99049.53;4951566;28;20432;-69
2023/01/19 02:32:29;;;;;;;6.43;3.25;;;;;;;4.22;83.50;99052.06;4959532;28;20048;-69
2023/01/19 02:34:54;;;;;;;10.63;3.95;;;;;;;4.19;83.74;99044.75;4934635;28;20032;-69
2023/01/19 02:37:20;;;;;;;4.25;2.90;;;;;;;4.30;83.26;99045.72;4943501;28;20040;-69
2023/01/19 02:39:51;;;;;;;5.90;3.08;;;;;;;4.34;82.89;99057.22;4962220;28;20047;-69
2023/01/19 02:42:26;;;;;;;7.30;4.17;;;;;;;4.56;81.97;99037.84;4940781;28;20039;-69
2023/01/19 02:44:54;;;;;;;7.50;3.03;;;;;;;4.34;82.40;99051.88;4954176;28;20294;-70
2023/01/19 02:47:22;;;;;;;7.55;3.40;;;;;;;4.37;82.83;99040.53;4969066;28;20035;-70
2023/01/19 02:49:56;;;;;;;5.93;3.95;;;;;;;4.22;82.86;99036.09;4948125;28;20027;-70
2023/01/19 02:52:22;;;;;;;6.28;3.72;;;;;;;4.32;82.81;99043.47;4959063;28;20031;-70
2023/01/19 02:55:15;;;;;;;7.00;3.83;;;;;;;4.29;84.05;99036.97;4944602;28;20131;-70
2023/01/19 02:58:09;;;;;;;5.63;2.78;;;;;;;4.31;83.46;99049.94;4939042;28;20102;-70
2023/01/19 03:00:59;;;;;;;5.80;3.30;;;;;;;4.33;83.33;99040.47;4935146;28;20027;-70
2023/01/19 03:03:49;;;;;;;7.50;3.25;;;;;;;4.40;83.38;99053.16;4949898;28;20036;-70
2023/01/19 03:06:35;;;;;;;6.80;3.40;;;;;;;4.49;83.43;99054.47;4942173;29;20409;-70
2023/01/19 03:09:00;;;;;;;3.50;2.85;;;;;;;4.44;83.48;99056.66;4938197;28;20038;-70
2023/01/19 03:11:32;;;;;;;6.40;3.20;;;;;;;4.51;82.67;99051.44;4934452;28;20456;-70
2023/01/19 03:14:13;;;;;;;6.40;3.95;;;;;;;4.57;82.71;99058.81;4954211;28;20436;-70
2023/01/19 03:16:43;;;;;;;7.82;3.08;;;;;;;4.59;82.80;99061.09;4952595;28;20044;-70
2023/01/19 03:19:18;;;;;;;5.65;3.47;;;;;;;4.42;83.49;99064.22;4950315;28;20027;-70
2023/01/19 03:21:50;;;;;;;8.02;2.35;;;;;;;4.46;83.15;99057.84;4951016;28;20028;-70
2023/01/19 03:24:20;;;;;;;5.68;3.08;;;;;;;4.41;83.32;99058.13;4935345;29;20058;-70
2023/01/19 03:26:56;;;;;;;9.57;4.05;;;;;;;4.38;83.72;99058.06;4934684;29;20035;-70
2023/01/19 03:29:26;;;;;;;6.57;3.47;;;;;;;4.14;84.81;99055.72;4953881;28;20505;-70
2023/01/19 03:31:53;;;;;;;2.80;2.45;;;;;;;4.19;85.44;99053.53;4932417;28;20542;-70
2023/01/19 03:34:22;;;;;;;6.93;3.75;;;;;;;4.47;84.50;99061.28;4948802;28;20380;-70
2023/01/19 03:36:52;;;;;;;5.38;3.50;;;;;;;4.44;84.56;99046.78;4951793;28;20048;-68
2023/01/19 03:39:23;;;;;;;7.97;3.75;;;;;;;4.26;84.81;99060.88;4934320;28;20027;-68
2023/01/19 03:41:52;;;;;;;8.83;4.43;;;;;;;4.38;83.69;99058.06;4938378;29;20158;-68
2023/01/19 03:44:18;;;;;;;9.98;3.88;;;;;;;4.10;85.50;99052.22;4949038;29;20393;-68
2023/01/19 03:46:46;;;;;;;5.38;2.70;;;;;;;4.41;84.98;99052.78;4942139;28;20028;-69
2023/01/19 03:49:32;;;;;;;4.75;2.83;;;;;;;4.29;85.10;99054.84;4953928;28;20038;-70
2023/01/19 03:51:58;;;;;;;4.95;2.70;;;;;;;4.47;84.80;99061.28;4928932;29;20130;-70
2023/01/19 03:54:24;;;;;;;6.93;3.38;;;;;;;4.43;84.76;99055.88;4933015;29;20054;-70
2023/01/19 03:57:10;;;;;;;6.72;3.55;;;;;;;4.54;85.19;99066.75;4922887;29;20074;-70
2023/01/19 03:59:35;;;;;;;7.05;3.63;;;;;;;4.64;84.16;99068.81;4866735;29;20096;-70
2023/01/19 04:02:01;;;;;;;6.18;2.92;;;;;;;4.54;84.69;99061.41;4872319;29;20045;-70
2023/01/19 04:04:26;;;;;;;11.93;3.28;;;;;;;4.68;84.68;99061.66;4842977;29;20045;-70
2023/01/19 04:06:52;;;;;;;7.47;3.53;;;;;;;4.59;84.84;99063.78;4874300;29;20048;-70
2023/01/19 04:09:17;;;;;;;4.30;2.88;;;;;;;4.84;83.41;99064.97;4857936;29;20053;-70
2023/01/19 04:11:43;;;;;;;8.55;4.13;;;;;;;4.63;84.27;99064.59;4870524;29;20118;-70
2023/01/19 04:14:08;;;;;;;7.55;3.25;;;;;;;4.75;84.49;99069.78;4858610;29;20044;-70
2023/01/19 04:16:34;;;;;;;6.07;3.40;;;;;;;4.84;84.55;99070.31;4859155;29;20128;-70
2023/01/19 04:18:59;;;;;;;8.85;3.22;;;;;;;4.85;84.40;99061.19;4871545;29;20406;-70
2023/01/19 04:21:25;;;;;;;6.30;3.33;;;;;;;4.90;84.86;99060.88;4858580;29;20053;-70
2023/01/19 04:23:51;;;;;;;7.93;2.83;;;;;;;4.78;84.26;99069.06;4869376;29;20057;-70
2023/01/19 04:26:17;;;;;;;7.93;3.28;;;;;;;4.59;85.93;99064.56;4868563;29;20128;-70
2023/01/19 04:28:42;;;;;;;5.63;2.35;;;;;;;4.79;85.68;99073.28;4858095;29;20119;-70
2023/01/19 04:31:08;;;;;;;8.30;3.40;;;;;;;4.78;84.39;99068.31;4873632;29;20403;-70
2023/01/19 04:33:34;;;;;;;9.93;4.28;;;;;;;4.62;85.82;99055.09;4874051;29;20056;-69
2023/01/19 04:35:59;;;;;;;7.10;3.58;;;;;;;4.64;85.11;99052.84;4876678;29;20059;-70
2023/01/19 04:41:03;;;;;;;5.70;2.83;;;;;;;4.58;85.67;99057.69;4964195;28;20050;-68
2023/01/19 04:43:28;;;;;;;4.38;3.15;;;;;;;4.64;86.22;99057.38;4991172;28;20049;-69
2023/01/19 04:45:53;;;;;;;4.68;3.25;;;;;;;4.77;85.41;99051.53;4990973;28;20026;-68
2023/01/19 04:48:19;;;;;;;7.63;3.00;;;;;;;4.68;85.77;99056.34;5003373;28;20030;-68
2023/01/19 04:50:45;;;;;;;9.23;3.50;;;;;;;4.65;86.02;99062.34;4994890;28;20113;-68
2023/01/19 04:53:12;;;;;;;6.07;3.25;;;;;;;4.59;86.10;99053.09;4989736;28;20037;-67
2023/01/19 04:55:38;;;;;;;4.40;2.92;;;;;;;4.67;85.74;99062.78;4991466;28;20113;-68
2023/01/19 04:58:04;;;;;;;3.72;2.60;;;;;;;4.74;85.65;99062.91;4987153;28;20457;-68
2023/01/19 05:00:29;;;;;;;10.18;4.60;;;;;;;4.74;85.61;99064.81;4990438;28;20109;-68
2023/01/19 05:02:55;;;;;;;5.10;2.75;;;;;;;4.73;85.53;99064.03;4991355;28;20049;-68
2023/01/19 05:05:20;;;;;;;6.30;4.07;;;;;;;4.62;86.68;99065.75;4991448;28;20037;-68
2023/01/19 05:07:46;;;;;;;5.03;3.47;;;;;;;4.25;88.37;99064.66;5005708;28;20034;-68
2023/01/19 05:10:11;;;;;;;7.75;3.17;;;;;;;4.38;88.28;99063.38;4992105;28;20030;-68
2023/01/19 05:12:37;;;;;;;4.97;2.80;;;;;;;4.53;87.71;99065.19;5006501;28;20736;-68
2023/01/19 05:15:03;;;;;;;13.13;4.78;;;;;;;4.47;88.38;99071.94;4993530;28;20033;-68
2023/01/19 05:17:29;;;;;;;5.68;3.95;;;;;;;4.53;88.66;99075.84;5010023;28;20491;-68
2023/01/19 05:19:54;;;;;;;8.45;3.88;;;;;;;4.64;88.09;99076.03;4993725;28;20112;-68
2023/01/19 05:22:20;;;;;;;12.40;3.83;;;;;;;4.68;88.12;99079.53;5010175;28;20034;-68
2023/01/19 05:24:45;;;;;;;4.55;3.15;;;;;;;4.58;87.64;99072.91;5010034;28;20087;-68
2023/01/19 05:27:11;;;;;;;4.68;3.03;;;;;;;4.64;87.88;99084.03;4988955;28;20045;-68
2023/01/19 05:29:36;;;;;;;5.93;3.22;;;;;;;4.62;87.47;99073.75;4992253;28;20046;-68
2023/01/19 05:32:02;;;;;;;7.30;3.60;;;;;;;4.51;88.49;99075.44;4994526;28;20109;-68
2023/01/19 05:34:28;;;;;;;9.88;3.65;;;;;;;4.63;87.65;99080.59;5009526;28;20426;-68
2023/01/19 05:36:53;;;;;;;5.05;3.50;;;;;;;4.48;88.49;99076.91;5009208;28;20034;-68
2023/01/19 05:39:18;;;;;;;11.50;3.97;;;;;;;4.66;87.98;99082.56;4993521;28;20085;-68
2023/01/19 05:41:44;;;;;;;7.40;4.03;;;;;;;4.46;88.13;99081.06;4989763;28;20034;-68
2023/01/19 05:44:10;;;;;;;9.68;4.40;;;;;;;4.31;90.25;99079.25;4991861;28;20034;-68
2023/01/19 05:46:37;;;;;;;12.95;3.00;;;;;;;4.29;89.79;99084.94;4994108;28;20427;-68
2023/01/19 05:49:03;;;;;;;7.68;3.88;;;;;;;4.37;90.65;99083.94;4989581;28;20085;-68
2023/01/19 05:51:33;;;;;;;6.75;3.85;;;;;;;4.63;89.32;99085.94;4993223;28;20048;-68
2023/01/19 05:54:00;;;;;;;8.45;3.33;;;;;;;4.65;89.20;99085.56;5003954;28;20038;-68
2023/01/19 05:56:26;;;;;;;4.80;3.97;;;;;;;4.69;89.12;99089.84;4995755;28;20030;-68
2023/01/19 05:58:51;;;;;;;9.25;4.10;;;;;;;4.59;89.65;99101.88;5007960;28;20065;-68
2023/01/19 06:01:17;;;;;;;11.02;4.13;;;;;;;4.57;89.59;99098.00;4986162;28;20061;-68
2023/01/19 06:03:42;;;;;;;7.55;2.92;;;;;;;4.52;90.79;99091.09;4992449;28;20042;-68
2023/01/19 06:06:08;;;;;;;11.50;4.13;;;;;;;4.43;91.20;99095.09;4994375;28;20522;-68
2023/01/19 06:08:33;;;;;;;8.88;3.78;;;;;;;4.22;91.39;99092.78;4991137;28;20046;-68
2023/01/19 06:10:59;;;;;;;7.13;3.92;;;;;;;4.48;91.69;99100.91;5002985;28;20035;-67
2023/01/19 06:13:24;;;;;;;8.52;3.20;;;;;;;4.39;91.70;99107.56;5006635;28;20038;-68
2023/01/19 06:15:56;;;;;;;7.90;3.70;;;;;;;4.28;92.17;99096.69;4998223;28;20498;-68
2023/01/19 06:18:22;;;;;;;7.50;3.90;;;;;;;4.37;92.03;99104.50;5005671;28;20073;-68
2023/01/19 06:20:47;;;;;;;8.57;3.95;;;;;;;4.34;93.19;99111.28;5003955;28;20062;-68
2023/01/19 06:23:13;;;;;;;9.65;3.75;;;;;;;4.59;91.74;99114.41;4984465;28;20049;-68
2023/01/19 06:25:38;;;;;;;10.98;4.03;;;;;;;4.46;92.22;99110.38;5002439;28;20039;-68
2023/01/19 06:28:04;;;;;;;6.40;3.22;;;;;;;4.36;92.84;99103.72;4985075;28;20027;-68
2023/01/19 06:30:29;;;;;;;7.80;4.63;;;;;;;4.35;92.80;99112.06;4989274;28;20038;-68
2023/01/19 06:32:55;;;;;;;7.07;3.28;;;;;;;4.36;93.00;99114.38;5004416;28;20057;-68
2023/01/19 06:35:20;;;;;;;5.78;2.95;;;;;;;4.30;93.54;99115.00;4985324;28;20030;-68
2023/01/19 06:37:46;;;;;;;7.35;3.85;;;;;;;4.42;93.53;99123.63;4992027;28;20041;-68
2023/01/19 06:40:11;;;;;;;9.82;4.85;;;;;;;4.42;93.80;99131.63;4988593;28;20113;-68
2023/01/19 06:42:37;;;;;;;12.98;3.75;;;;;;;4.51;93.97;99121.50;4984818;28;20502;-68
2023/01/19 06:45:02;;;;;;;8.30;3.70;;;;;;;4.58;93.57;99127.00;4997749;28;20085;-68
2023/01/19 06:47:29;;;;;;;7.35;3.78;;;;;;;4.68;92.64;99136.31;4987360;28;20034;-68
2023/01/19 06:49:54;;;;;;;8.43;4.85;;;;;;;4.33;94.71;99131.06;4994629;28;20030;-68
2023/01/19 06:52:20;;;;;;;10.27;4.50;;;;;;;4.46;95.05;99119.13;5008999;28;20499;-67
2023/01/19 06:54:45;;;;;;;7.45;3.67;;;;;;;4.52;94.04;99128.41;4996921;28;20405;-68
2023/01/19 06:57:12;;;;;;;13.77;3.97;;;;;;;4.48;94.78;99129.44;4988981;28;20038;-68
2023/01/19 06:59:37;;;;;;;8.77;4.03;;;;;;;4.59;93.92;99128.50;5012807;28;20046;-68
2023/01/19 07:02:03;;;;;;;16.33;5.10;;;;;;;4.73;92.92;99144.00;4992535;28;20034;-68
2023/01/19 07:04:29;;;;;;;10.30;5.20;;;;;;;4.33;94.78;99135.63;4992155;28;20042;-68
2023/01/19 07:06:54;;;;;;;6.85;3.95;;;;;;;4.33;95.65;99154.25;4992142;28;20034;-68
2023/01/19 07:09:20;;;;;;;8.98;4.15;;;;;;;4.61;94.88;99151.41;4996830;28;20030;-68
2023/01/19 07:11:47;;;;;;;12.18;4.47;;;;;;;4.42;95.13;99160.94;4994828;28;20791;-68
2023/01/19 07:14:12;;;;;;;8.15;3.65;;;;;;;4.40;94.98;99168.50;5007679;28;20034;-68
2023/01/19 07:16:38;;;;;;;5.47;3.53;;;;;;;4.36;94.73;99169.53;4991470;28;20073;-68
2023/01/19 07:19:03;;;;;;;9.57;4.53;;;;;;;4.17;96.79;99169.53;4990879;28;20026;-68
2023/01/19 07:21:29;;;;;;;9.10;3.75;;;;;;;4.06;96.89;99160.53;5011962;28;20083;-68
2023/01/19 07:23:54;;;;;;;5.40;3.25;;;;;;;4.16;96.88;99179.41;4994826;28;20062;-68
2023/01/19 07:26:23;;;;;;;6.55;4.13;;;;;;;4.31;97.03;99178.59;4995289;28;20064;-68
2023/01/19 07:28:50;;;;;;;11.52;5.35;;;;;;;4.49;96.17;99184.28;4994751;28;20537;-68
2023/01/19 07:31:16;;;;;;;8.60;3.83;;;;;;;4.42;96.55;99182.25;4988624;28;20089;-68
2023/01/19 07:33:42;;;;;;;12.57;5.00;;;;;;;4.62;96.19;99191.03;4990721;28;20395;-68
2023/01/19 07:36:08;;;;;;;8.45;3.58;;;;;;;4.45;95.90;99192.19;4992221;28;20034;-68
2023/01/19 07:38:33;;;;;;;13.02;4.68;;;;;;;4.52;96.19;99196.91;5007079;28;20045;-68
2023/01/19 07:41:03;;;;;;;12.45;4.47;;;;;;;4.46;95.91;99199.09;5005282;28;20030;-68
2023/01/19 07:43:28;;;;;;;12.55;3.47;;;;;;;4.61;96.26;99208.13;4992640;28;20446;-68
2023/01/19 07:45:58;;;;;;;13.60;6.13;;;;;;;4.65;95.25;99214.28;4985690;28;20038;-68
2023/01/19 07:48:24;;;;;;;11.23;4.70;;;;;;;4.48;95.28;99212.81;4991868;28;20026;-68
2023/01/19 07:50:49;;;;;;;8.95;4.35;;;;;;;4.63;95.41;99218.47;4991109;28;20421;-68
2023/01/19 07:53:15;;;;;;;10.80;4.53;;;;;;;4.48;95.53;99212.03;4991199;28;20037;-68
2023/01/19 07:55:41;;;;;;;10.40;4.85;;;;;;;4.63;96.34;99221.88;5007298;28;20109;-68
2023/01/19 07:58:06;;;;;;;10.30;5.22;;;;;;;4.56;95.25;99222.50;4991667;28;20126;-68
2023/01/19 08:00:34;;;;;;;9.27;3.90;;;;;;;4.44;96.81;99224.53;5006586;28;20049;-68
2023/01/19 08:03:01;;;;;;;7.00;4.15;;;;;;;4.62;96.04;99223.00;4991430;28;20483;-68
2023/01/19 08:05:28;;;;;;;12.13;5.03;;;;;;;4.72;95.22;99229.66;4991822;28;20037;-68
2023/01/19 08:07:57;;;;;;;11.40;5.07;;;;;;;4.26;96.68;99228.69;5006658;28;20098;-68
2023/01/19 08:10:25;;;;;;;9.98;5.30;;;;;;;4.49;97.32;99245.59;5000998;28;20117;-68
2023/01/19 08:12:55;;;;;;;10.43;5.53;;;;;;;4.59;96.96;99234.34;5005394;28;20042;-68
2023/01/19 08:15:22;;;;;;;7.93;4.15;;;;;;;4.67;96.88;99244.03;4988547;28;20034;-68
2023/01/19 08:18:04;;;;;;;9.07;5.28;;;;;;;4.34;97.32;99244.50;5004849;28;20125;-68
2023/01/19 08:20:30;;;;;;;9.25;4.95;;;;;;;4.58;96.81;99246.16;4989986;28;20530;-68
2023/01/19 08:22:59;;;;;;;12.35;5.35;;;;;;;4.70;96.87;99240.69;4991521;28;20390;-68
2023/01/19 08:25:31;;;;;;;14.38;4.95;;;;;;;4.76;96.31;99249.97;5005839;28;20121;-68
2023/01/19 08:27:56;;;;;;;20.58;6.88;;;;;;;4.78;95.71;99253.03;4991581;28;20122;-68
2023/01/19 08:30:25;;;;;;;9.20;4.93;;;;;;;4.81;95.86;99252.34;4990786;28;20033;-68
2023/01/19 08:32:51;;;;;;;14.57;6.25;;;;;;;4.71;96.29;99255.56;4991559;28;20038;-68
2023/01/19 08:35:17;;;;;;;7.65;4.72;;;;;;;4.75;96.01;99264.41;4991007;28;20407;-68
2023/01/19 08:37:42;;;;;;;9.48;4.93;;;;;;;4.89;96.28;99263.91;4991457;28;20035;-68
2023/01/19 08:40:08;;;;;;;12.07;6.25;;;;;;;4.93;95.69;99262.88;4986613;28;20034;-68
2023/01/19 08:42:33;;;;;;;10.65;5.10;;;;;;;4.85;95.95;99255.84;4993263;28;20097;-68
2023/01/19 08:44:59;;;;;;;11.48;5.18;;;;;;;5.07;95.23;99265.03;4981815;28;20038;-68
2023/01/19 08:47:24;;;;;;;12.88;5.50;;;;;;;5.12;94.52;99273.53;4987936;28;20042;-68
2023/01/19 08:49:50;;;;;;;17.25;6.75;;;;;;;5.18;94.53;99272.13;5004847;28;20046;-68
2023/01/19 08:52:15;;;;;;;9.40;4.72;;;;;;;5.07;94.30;99279.13;4991160;28;20030;-68
2023/01/19 08:54:41;;;;;;;6.60;3.67;;;;;;;5.02;95.03;99281.31;5005414;28;20097;-68
2023/01/19 08:57:06;;;;;;;11.73;6.25;;;;;;;4.92;95.91;99279.97;4990828;28;20042;-68
2023/01/19 08:59:31;;;;;;;15.35;6.20;;;;;;;5.15;95.64;99285.41;4989923;28;20026;-68
2023/01/19 09:01:57;;;;;;;13.48;5.53;;;;;;;5.00;95.90;99289.66;4986842;28;20037;-68
2023/01/19 09:04:23;;;;;;;8.52;4.30;;;;;;;5.18;94.82;99285.47;4989337;28;20045;-68
2023/01/19 09:06:49;;;;;;;12.32;4.70;;;;;;;5.17;94.62;99278.56;5006367;28;20038;-68
2023/01/19 09:09:14;;;;;;;13.60;6.90;;;;;;;5.35;94.16;99293.03;4990502;28;20538;-68
2023/01/19 09:11:41;;;;;;;13.18;6.00;;;;;;;5.29;94.35;99294.44;5005357;28;20041;-68
2023/01/19 09:14:07;;;;;;;11.60;6.65;;;;;;;5.13;94.88;99292.97;4990879;28;20121;-68
2023/01/19 09:16:33;;;;;;;11.55;5.68;;;;;;;4.84;96.03;99288.94;4987864;28;20038;-68
2023/01/19 09:18:58;;;;;;;11.85;4.97;;;;;;;4.87;96.46;99292.81;4989170;28;20037;-68
2023/01/19 09:21:24;;;;;;;10.60;5.28;;;;;;;4.87;97.17;99290.94;4990847;28;20429;-68
2023/01/19 09:23:50;;;;;;;11.48;6.35;;;;;;;4.68;97.67;99287.47;4990368;28;20080;-68
2023/01/19 09:26:16;;;;;;;9.20;5.18;;;;;;;4.97;97.03;99290.38;5002143;28;20149;-68
2023/01/19 09:28:41;;;;;;;9.00;4.55;;;;;;;4.90;96.88;99292.88;4987070;28;20018;-68
2023/01/19 09:31:07;;;;;;;11.65;5.38;;;;;;;4.99;96.91;99287.34;4987610;28;20092;-68
2023/01/19 09:33:33;;;;;;;8.75;4.88;;;;;;;5.12;96.27;99305.53;5004680;28;20407;-68
2023/01/19 09:35:59;;;;;;;12.63;6.00;;;;;;;4.99;95.58;99308.69;4990880;28;20022;-68
2023/01/19 09:38:25;;;;;;;10.82;5.32;;;;;;;4.88;95.87;99302.38;4990282;28;20093;-68
2023/01/19 09:40:55;;;;;;;14.13;4.65;;;;;;;4.95;96.20;99313.97;5004595;28;20116;-68
2023/01/19 09:43:39;;;;;;;8.50;4.43;;;;;;;4.93;95.83;99308.22;4990394;28;20048;-68
2023/01/19 09:46:43;;;;;;;9.40;4.60;;;;;;;4.90;96.44;99310.78;4987503;28;20762;-68
2023/01/19 09:49:14;;;;;;;12.60;5.13;;;;;;;5.04;95.66;99309.19;4977418;28;20513;-68
2023/01/19 09:51:45;;;;;;;6.20;4.13;;;;;;;4.95;95.91;99318.50;4989201;28;20034;-68
2023/01/19 09:54:17;;;;;;;14.45;6.22;;;;;;;4.93;96.07;99313.53;4990034;28;20066;-68
2023/01/19 09:56:48;;;;;;;7.85;5.30;;;;;;;4.97;95.78;99314.38;4990206;28;20467;-68
2023/01/19 09:59:21;;;;;;;9.32;3.75;;;;;;;5.01;95.44;99315.22;4992801;28;20045;-68
2023/01/19 10:02:12;;;;;;;14.05;6.18;;;;;;;5.15;94.84;99325.41;4990794;28;20026;-68
2023/01/19 10:05:00;;;;;;;7.53;4.30;;;;;;;5.15;95.28;99330.75;4991928;28;20545;-68
2023/01/19 10:07:34;;;;;;;8.38;4.80;;;;;;;4.98;95.31;99328.47;5008425;28;20458;-68
2023/01/19 10:10:11;;;;;;;5.95;3.47;;;;;;;4.94;95.66;99336.41;4992546;28;20038;-68
2023/01/19 10:12:53;;;;;;;13.45;5.55;;;;;;;4.89;96.01;99343.91;4993464;28;20033;-68
2023/01/19 10:15:47;;;;;;;10.63;4.47;;;;;;;5.00;96.30;99337.69;5008510;28;20497;-68
2023/01/19 10:18:30;;;;;;;13.15;4.18;;;;;;;5.20;95.64;99336.56;5008960;28;20049;-68
2023/01/19 10:21:01;;;;;;;9.10;4.35;;;;;;;5.16;95.60;99338.41;5007768;28;20034;-68
2023/01/19 10:24:00;;;;;;;10.93;4.40;;;;;;;5.24;94.93;99339.31;5008599;28;20145;-68
2023/01/19 10:26:35;;;;;;;10.48;4.43;;;;;;;5.10;95.90;99339.00;4989275;28;20248;-68
2023/01/19 10:29:11;;;;;;;7.32;4.15;;;;;;;4.96;95.72;99339.50;4992475;28;20035;-68
2023/01/19 10:31:38;;;;;;;12.27;5.65;;;;;;;5.13;96.12;99336.41;4979577;28;20088;-68
2023/01/19 10:34:04;;;;;;;8.35;4.43;;;;;;;5.35;95.30;99342.94;4990964;28;20029;-68
2023/01/19 10:36:35;;;;;;;10.77;5.43;;;;;;;5.30;94.92;99343.25;4993502;28;20030;-68
2023/01/19 10:41:51;;;;;;;13.00;5.00;;;;;;;5.30;93.98;99337.91;5023688;28;20057;-69
2023/01/19 10:44:33;;;;;;;13.65;4.05;;;;;;;5.29;94.60;99347.81;5032506;28;20473;-69
2023/01/19 10:46:59;;;;;;;8.57;4.95;;;;;;;5.37;94.73;99344.16;5025801;28;20033;-69
2023/01/19 10:49:28;;;;;;;8.35;4.25;;;;;;;5.56;93.96;99345.25;5026310;28;20040;-70
2023/01/19 10:51:58;;;;;;;10.48;4.57;;;;;;;5.68;93.35;99342.41;5012635;28;20088;-69
2023/01/19 10:54:26;;;;;;;14.27;4.47;;;;;;;5.64;92.81;99354.94;5009366;28;20730;-69
2023/01/19 10:57:02;;;;;;;6.43;3.80;;;;;;;5.53;94.26;99356.63;5009135;28;20042;-69
2023/01/19 10:59:32;;;;;;;9.75;3.67;;;;;;;5.64;93.42;99362.94;5012263;28;20048;-69
2023/01/19 11:02:11;;;;;;;8.77;3.57;;;;;;;5.57;92.72;99360.16;5008567;28;20041;-69
2023/01/19 11:04:36;;;;;;;10.13;4.47;;;;;;;5.50;93.06;99368.78;5011079;28;20038;-69
2023/01/19 11:07:18;;;;;;;8.30;4.82;;;;;;;5.46;93.29;99360.72;4990987;28;20375;-69
2023/01/19 11:09:45;;;;;;;10.25;5.63;;;;;;;5.48;92.49;99363.81;5011740;28;20033;-69
2023/01/19 11:12:22;;;;;;;9.68;4.40;;;;;;;5.44;92.70;99359.50;5011912;28;20064;-70
2023/01/19 11:14:49;;;;;;;6.93;3.95;;;;;;;5.48;92.30;99358.47;5009579;28;20022;-70
2023/01/19 11:17:24;;;;;;;7.22;3.92;;;;;;;5.57;92.78;99362.81;5010044;28;20049;-70
2023/01/19 11:20:01;;;;;;;9.82;4.63;;;;;;;5.74;92.36;99365.03;5006342;28;20128;-70
2023/01/19 11:22:31;;;;;;;10.55;4.88;;;;;;;5.60;92.35;99359.44;5013005;28;20034;-70
2023/01/19 11:25:03;;;;;;;5.22;3.28;;;;;;;5.69;92.49;99357.34;5019634;28;20030;-70
2023/01/19 11:27:50;;;;;;;10.20;5.00;;;;;;;5.87;91.90;99366.44;5033942;28;20383;-70
2023/01/19 11:30:21;;;;;;;7.78;4.38;;;;;;;6.04;91.50;99366.00;4973179;28;20051;-70
2023/01/19 11:32:48;;;;;;;7.00;3.88;;;;;;;6.01;91.34;99367.47;4975293;28;20438;-70
2023/01/19 11:35:39;;;;;;;8.73;4.70;;;;;;;6.10;90.43;99380.59;4970155;28;20038;-70
2023/01/19 11:38:11;;;;;;;10.40;5.15;;;;;;;6.01;90.51;99374.72;4980367;28;20034;-70
2023/01/19 11:40:37;;;;;;;8.07;4.38;;;;;;;6.07;90.79;99374.06;4960010;28;20065;-70
2023/01/19 11:43:03;;;;;;;8.90;4.22;;;;;;;6.06;91.21;99383.22;4984810;28;20082;-70
2023/01/19 11:45:31;;;;;;;9.93;4.35;;;;;;;6.10;90.23;99378.69;4983242;28;20042;-70
2023/01/19 11:48:02;;;;;;;8.23;4.03;;;;;;;6.13;90.16;99377.22;4978405;28;20117;-70
2023/01/19 11:50:37;;;;;;;9.05;3.92;;;;;;;5.97;90.87;99381.91;4977338;28;20042;-70
2023/01/19 11:53:24;;;;;;;7.93;4.10;;;;;;;5.67;92.13;99376.34;4970525;28;20074;-70
2023/01/19 11:56:19;;;;;;;7.35;3.47;;;;;;;5.95;91.90;99378.81;4976179;28;20030;-70
2023/01/19 11:58:46;;;;;;;12.52;5.00;;;;;;;6.18;91.12;99383.03;4971319;28;20046;-68
2023/01/19 12:01:12;;;;;;;11.90;3.95;;;;;;;6.18;90.63;99379.59;4974945;28;20050;-68
2023/01/19 12:03:47;;;;;;;7.00;4.38;;;;;;;6.16;91.06;99385.28;4982517;28;20046;-68